Latest Weather Observations for Mount Keith

IDW60801

Issued at 5:05 pm WST Friday 28 November 2014 (issued every 30 minutes, with the page automatically refreshed every 10 minutes)

About weather observations | Map of weather stations | Latest weather observations for WA | Other Formats
Station Details ID: 512019 Name: MOUNT KEITH Lat: -27.29 Lon: 120.55 Height: 542.33 m
Data from the previous 72 hours. | See also: Recent months for locations in Western Australia
Date/Time
WST
Temp
°C
App
Temp
°C
Dew
Point
Rel
Hum
%
Delta-T
°C
Wind Press
QNH
hPa
Press
MSL
hPa
Rain
since 9 am
mm
Dir
 
Spd
km/h
Gust
km/h
Spd
kts
Gust
kts
28/05:00pm 34.2 26.8 1.9 13 16.8 WNW 30 39 16 21 1008.2 1004.7 0.0
28/04:30pm 34.5 26.9 3.1 14 16.7 W 32 44 17 24 1008.1 1004.6 0.0
28/04:00pm 35.0 26.6 3.5 14 16.9 WNW 37 54 20 29 1008.1 1004.6 0.0
28/03:35pm 35.0 28.3 5.4 16 16.3 WNW 30 50 16 27 1008.0 1004.5 0.0
28/03:30pm 34.9 28.5 5.4 16 16.2 WNW 28 41 15 22 1008.0 1004.5 0.0
28/03:02pm 35.0 27.7 5.4 16 16.3 WNW 33 54 18 29 1008.1 1004.6 0.0
28/03:00pm 35.3 28.2 6.6 17 16.2 WNW 33 50 18 27 1008.1 1004.6 0.0
28/02:35pm 34.7 28.6 8.4 20 15.2 NW 30 50 16 27 1008.3 1004.9 0.0
28/02:30pm 35.2 29.4 8.1 19 15.6 NW 28 43 15 23 1008.4 1005.0 0.0
28/02:17pm 35.1 28.0 5.5 16 16.3 NW 32 50 17 27 1008.6 1005.2 0.0
28/02:00pm 35.9 29.5 8.7 19 15.9 WNW 32 46 17 25 1008.7 1005.3 0.0
28/01:30pm 35.2 29.4 9.6 21 15.1 NW 30 48 16 26 1009.0 1005.6 0.0
28/01:04pm 34.1 29.0 10.7 24 13.9 NW 28 46 15 25 1009.3 1005.8 0.0
28/01:00pm 34.4 29.6 10.3 23 14.3 NW 26 46 14 25 1009.4 1005.9 0.0
28/12:33pm 34.3 29.1 10.2 23 14.3 NW 28 54 15 29 1009.9 1006.4 0.0
28/12:30pm 34.3 29.6 12.0 25 13.6 WNW 28 43 15 23 1009.8 1006.3 0.0
28/12:11pm 33.2 28.8 12.8 29 12.5 WNW 28 46 15 25 1010.0 1006.6 0.0
28/12:00pm 33.0 29.9 14.6 33 11.6 WNW 24 37 13 20 1010.1 1006.7 0.0
28/11:31am 32.1 28.3 14.7 35 10.9 NNW 28 46 15 25 1010.5 1007.1 0.0
28/11:30am 32.4 29.1 15.0 35 11.0 NNW 26 46 14 25 1010.5 1007.1 0.0
28/11:27am 32.9 29.5 15.8 35 10.9 NNW 28 46 15 25 1010.6 1007.2 0.0
28/11:00am 31.6 28.3 16.0 39 10.0 NW 28 37 15 20 1011.2 1007.7 0.0
28/10:30am 30.8 28.8 16.4 42 9.2 NNW 22 32 12 17 1011.5 1008.0 0.0
28/10:00am 29.4 26.5 16.2 44 8.4 NNW 26 43 14 23 1011.6 1008.1 0.0
28/09:30am 28.5 26.5 16.4 48 7.7 NNW 22 33 12 18 1011.7 1008.3 0.0
28/09:00am 27.4 25.0 16.4 51 7.0 N 24 35 13 19 1011.9 1008.5 4.2
28/08:30am 27.3 25.0 16.6 52 6.8 N 24 35 13 19 1012.2 1008.8 4.2
28/08:00am 26.3 25.1 17.4 58 5.7 N 20 28 11 15 1012.3 1008.9 4.2
28/07:30am 24.4 23.9 16.9 63 4.7 N 15 22 8 12 1012.3 1008.9 4.2
28/07:00am 22.9 23.1 17.6 72 3.4 N 13 17 7 9 1012.6 1009.2 4.2
28/06:30am 21.6 21.9 18.0 80 2.3 N 13 15 7 8 1012.6 1009.2 4.2
28/06:00am 21.2 21.9 18.0 82 2.0 NE 11 26 6 14 1012.5 1009.1 4.2
28/05:30am 20.2 19.7 17.8 86 1.5 NE 17 22 9 12 1012.1 1008.7 4.2
28/05:00am 20.1 19.6 17.9 87 1.4 NE 17 26 9 14 1012.4 1009.0 4.2
28/04:30am 20.0 19.4 17.6 86 1.5 NE 17 22 9 12 1012.1 1008.7 4.2
28/04:00am 20.1 20.6 17.5 85 1.6 NNE 11 15 6 8 1012.1 1008.7 4.2
28/03:30am 20.1 19.9 17.5 85 1.6 NNE 15 22 8 12 1011.7 1008.3 4.2
28/03:00am 20.1 20.1 17.3 84 1.8 NNE 13 17 7 9 1011.7 1008.3 4.2
28/02:30am 20.3 19.5 17.1 82 2.0 NE 17 24 9 13 1011.6 1008.1 4.2
28/02:00am 20.4 20.1 17.4 83 1.9 NE 15 22 8 12 1011.7 1008.3 4.2
28/01:30am 20.6 20.9 17.8 84 1.8 NE 13 15 7 8 1012.0 1008.6 4.2
28/01:00am 20.8 20.6 17.6 82 2.0 NE 15 19 8 10 1012.1 1008.7 4.2
28/12:30am 21.0 20.3 17.4 80 2.3 NE 17 24 9 13 1012.1 1008.7 4.2
28/12:00am 21.4 20.1 17.2 77 2.6 NE 20 26 11 14 1012.4 1009.0 4.2
 
Date/Time
WST
Temp
°C
App
Temp
°C
Dew
Point
Rel
Hum
%
Delta-T
°C
Wind Press
QNH
hPa
Press
MSL
hPa
Rain
since 9 am
mm
Dir
 
Spd
km/h
Gust
km/h
Spd
kts
Gust
kts
27/11:30pm 22.1 19.3 17.2 74 3.1 NE 28 37 15 20 1012.0 1008.6 4.2
27/11:00pm 22.9 19.3 17.1 70 3.7 NE 32 46 17 25 1011.8 1008.4 4.2
27/10:30pm 22.1 19.4 17.5 75 2.9 NE 28 39 15 21 1011.9 1008.5 4.2
27/10:23pm 22.0 18.9 17.4 75 2.9 ENE 30 39 16 21 1012.1 1008.7 4.2
27/10:06pm 21.0 17.9 17.6 81 2.1 NNE 30 41 16 22 1012.7 1009.3 3.8
27/10:00pm 22.2 20.5 17.1 73 3.2 N 22 35 12 19 1012.9 1009.5 1.8
27/09:38pm 23.9 20.9 16.9 65 4.4 N 28 39 15 21 1011.9 1008.5 1.8
27/09:30pm 23.1 23.1 17.3 70 3.7 E 13 17 7 9 1011.0 1007.6 1.8
27/09:00pm 23.8 22.9 17.8 69 3.8 ENE 19 20 10 11 1010.9 1007.5 1.8
27/08:30pm 26.4 25.7 14.2 47 7.4 NE 11 28 6 15 1010.9 1007.5 0.0
27/08:00pm 26.4 25.7 13.2 44 7.9 NE 9 13 5 7 1010.3 1006.9 0.0
27/07:30pm 26.2 24.9 12.6 43 8.1 ENE 11 19 6 10 1010.1 1006.7 0.0
27/07:00pm 26.2 25.2 13.3 45 7.8 ENE 11 15 6 8 1010.1 1006.7 0.0
27/06:30pm 26.7 24.1 13.1 43 8.2 NNE 19 28 10 15 1009.9 1006.4 0.0
27/06:00pm 29.0 26.9 13.6 38 9.4 NNE 17 24 9 13 1008.9 1005.5 0.0
27/05:30pm 27.4 24.0 14.8 46 7.8 NNE 26 37 14 20 1009.3 1005.8 0.0
27/05:17pm 28.2 23.2 14.1 42 8.6 N 33 52 18 28 1009.6 1006.1 0.0
27/05:00pm 32.3 27.1 10.4 26 12.9 NNW 28 39 15 21 1009.3 1005.8 0.0
27/04:30pm 34.0 31.0 11.8 26 13.4 N 19 26 10 14 1009.0 1005.6 0.0
27/04:00pm 33.8 31.3 11.0 25 13.6 N 15 19 8 10 1009.5 1006.0 0.0
27/03:30pm 35.3 31.8 11.0 23 14.6 N 20 26 11 14 1009.7 1006.2 0.0
27/03:00pm 33.6 32.5 12.0 27 13.1 NW 9 13 5 7 1010.3 1006.9 0.0
27/02:30pm 34.1 32.8 11.3 25 13.7 N 9 17 5 9 1010.5 1007.1 0.0
27/02:00pm 34.6 32.5 12.3 26 13.6 N 15 30 8 16 1011.0 1007.6 0.0
27/01:30pm 32.9 31.6 12.5 29 12.4 NNW 11 26 6 14 1011.3 1007.8 0.0
27/01:00pm 32.7 30.8 12.9 30 12.1 N 15 28 8 15 1011.6 1008.1 0.0
27/12:30pm 32.3 29.1 13.0 31 11.8 ENE 22 33 12 18 1012.0 1008.6 0.0
27/12:00pm 31.4 28.6 13.2 33 11.1 NNE 20 30 11 16 1012.4 1009.0 0.0
27/11:30am 30.1 26.9 13.0 35 10.4 NNE 22 35 12 19 1012.9 1009.5 0.0
27/11:00am 29.6 26.3 12.9 35 10.1 NNE 22 35 12 19 1013.5 1010.1 0.0
27/10:30am 29.7 27.3 13.9 38 9.7 NNE 19 32 10 17 1014.0 1010.6 0.0
27/10:00am 28.5 25.8 13.6 40 9.1 NNE 20 33 11 18 1014.2 1010.8 0.0
27/09:30am 27.3 23.9 13.6 43 8.3 N 24 32 13 17 1014.6 1011.2 0.0
27/09:00am 26.1 23.5 13.9 47 7.4 NNE 20 28 11 15 1014.7 1011.3 0.2
27/08:30am 25.3 21.9 13.8 49 6.9 NNE 24 35 13 19 1015.1 1011.7 0.2
27/08:00am 24.4 22.0 13.9 52 6.3 NNE 19 32 10 17 1014.9 1011.6 0.2
27/07:30am 23.5 22.1 14.5 57 5.4 NE 15 22 8 12 1014.9 1011.6 0.2
27/07:00am 22.3 20.7 13.9 59 5.0 ENE 15 20 8 11 1014.7 1011.3 0.2
27/06:30am 20.7 20.0 14.4 67 3.8 ESE 11 15 6 8 1014.6 1011.2 0.2
27/06:00am 19.7 19.1 14.5 72 3.1 ESE 11 13 6 7 1014.2 1010.8 0.2
27/05:30am 19.0 19.2 14.7 76 2.6 SE 7 9 4 5 1014.3 1010.9 0.2
27/05:00am 18.9 18.6 14.4 75 2.7 E 9 11 5 6 1014.2 1010.8 0.2
27/04:30am 18.9 19.9 14.4 75 2.7 NNE 2 9 1 5 1014.0 1010.6 0.2
27/04:00am 19.7 19.9 14.3 71 3.2 NNE 6 7 3 4 1014.0 1010.6 0.2
27/03:30am 19.9 20.7 13.8 68 3.6 SE 2 7 1 4 1013.7 1010.3 0.2
27/03:00am 20.0 17.4 13.7 67 3.7 WSW 20 33 11 18 1013.8 1010.4 0.2
27/02:42am 19.8 15.0 14.0 69 3.4 ENE 32 35 17 19 1012.4 1009.0 0.2
27/02:30am 19.7 19.1 14.5 72 3.1 ENE 11 17 6 9 1014.1 1010.7 0.2
27/02:00am 19.9 20.0 14.0 69 3.5 WSW 6 11 3 6 1015.5 1012.1 0.2
27/01:30am 20.1 18.4 14.7 71 3.2 W 17 24 9 13 1015.8 1012.4 0.2
27/01:00am 20.2 16.3 14.3 69 3.5 WSW 28 37 15 20 1016.1 1012.7 0.2
27/12:30am 20.3 15.2 14.9 71 3.2 W 35 50 19 27 1016.2 1012.8 0.2
27/12:00am 22.8 19.5 14.1 58 5.2 NW 24 33 13 18 1016.0 1012.6 0.2
 
Date/Time
WST
Temp
°C
App
Temp
°C
Dew
Point
Rel
Hum
%
Delta-T
°C
Wind Press
QNH
hPa
Press
MSL
hPa
Rain
since 9 am
mm
Dir
 
Spd
km/h
Gust
km/h
Spd
kts
Gust
kts
26/11:30pm 23.8 19.1 14.2 55 5.8 NNW 32 43 17 23 1016.0 1012.6 0.2
26/11:12pm 25.5 21.0 12.7 45 7.6 N 28 46 15 25 1015.8 1012.4 0.2
26/11:00pm 25.4 23.0 12.6 45 7.6 NNE 17 22 9 12 1015.1 1011.7 0.2
26/10:30pm 25.5 23.4 12.4 44 7.7 NE 15 24 8 13 1014.7 1011.3 0.2
26/10:00pm 25.6 22.5 11.7 42 8.1 NE 19 24 10 13 1014.7 1011.3 0.2
26/09:30pm 25.7 22.6 11.5 41 8.3 NE 19 24 10 13 1014.8 1011.4 0.2
26/09:00pm 25.9 22.4 10.9 39 8.6 ENE 20 30 11 16 1014.4 1011.0 0.2
26/08:30pm 26.4 21.2 10.1 36 9.3 ENE 28 39 15 21 1014.1 1010.7 0.2
26/08:00pm 26.9 22.6 9.3 33 9.9 ENE 22 32 12 17 1014.1 1010.7 0.2
26/07:30pm 26.8 22.8 9.2 33 9.9 ENE 20 30 11 16 1013.7 1010.3 0.2
26/07:00pm 27.9 23.2 7.7 28 11.1 NE 22 30 12 16 1013.3 1009.9 0.2
26/06:30pm 28.6 24.6 6.7 25 11.9 E 17 26 9 14 1012.4 1009.0 0.2
26/06:00pm 28.9 25.1 7.5 26 11.8 E 17 22 9 12 1012.3 1008.9 0.2
26/05:30pm 29.0 24.3 7.6 26 11.9 E 22 32 12 17 1012.4 1009.0 0.2
26/05:00pm 29.9 27.6 8.9 27 11.9 SSE 11 19 6 10 1012.7 1009.3 0.2
26/04:30pm 29.5 26.8 9.1 28 11.6 SW 13 17 7 9 1013.0 1009.6 0.2
26/04:00pm 29.9 28.0 8.9 27 11.9 SW 9 13 5 7 1013.5 1010.1 0.2
26/03:30pm 29.2 23.7 9.3 29 11.3 WSW 28 39 15 21 1013.3 1009.9 0.2
26/03:16pm 29.5 23.4 9.6 29 11.4 W 32 43 17 23 1013.6 1010.2 0.2
26/03:00pm 29.2 26.2 9.3 29 11.3 SSE 15 24 8 13 1013.6 1010.2 0.2
26/02:30pm 30.9 28.2 7.4 23 13.1 NNW 11 17 6 9 1014.0 1010.6 0.2
26/02:00pm 30.8 27.3 7.3 23 13.1 NNW 15 24 8 13 1014.0 1010.6 0.2
26/01:30pm 31.1 26.6 6.9 22 13.4 NNE 20 28 11 15 1013.6 1010.2 0.2
26/01:00pm 30.9 24.6 7.4 23 13.1 NE 30 39 16 21 1012.8 1009.4 0.2
26/12:30pm 31.2 25.3 7.6 23 13.2 ENE 28 35 15 19 1012.7 1009.3 0.2
26/12:00pm 30.1 24.5 7.3 24 12.6 NE 26 33 14 18 1013.0 1009.6 0.2
26/11:30am 29.6 23.6 6.9 24 12.5 NE 28 35 15 19 1013.5 1010.1 0.2
26/11:00am 28.6 23.4 7.2 26 11.8 NE 24 33 13 18 1014.3 1010.9 0.2
26/10:30am 27.0 21.6 6.4 27 11.1 NE 24 32 13 17 1014.8 1011.4 0.2
26/10:00am 26.0 21.4 6.6 29 10.4 NE 20 26 11 14 1015.8 1012.4 0.2
26/09:30am 25.7 23.4 7.3 31 10.0 NNE 9 15 5 8 1016.7 1013.4 0.2
26/09:00am 24.5 22.0 6.7 32 9.5 NE 9 15 5 8 1017.4 1014.0 1.4
26/08:30am 24.9 21.0 5.2 28 10.2 NNE 15 20 8 11 1016.9 1013.6 1.2
26/08:00am 24.7 19.9 4.5 27 10.3 NE 19 32 10 17 1016.6 1013.3 1.2
26/07:30am 24.7 18.6 5.0 28 10.2 NE 26 35 14 19 1015.9 1012.5 1.2
26/07:00am 24.3 17.9 5.1 29 9.9 NE 28 43 15 23 1015.6 1012.2 1.2
26/06:30am 24.2 18.1 6.5 32 9.4 NE 28 37 15 20 1015.1 1011.7 1.2
26/06:00am 24.0 17.2 6.7 33 9.2 ENE 32 46 17 25 1014.5 1011.1 1.2
26/05:30am 23.8 17.0 7.8 36 8.7 ENE 33 48 18 26 1014.1 1010.7 1.2
26/05:00am 22.9 17.5 11.0 47 6.8 ENE 30 43 16 23 1014.2 1010.8 1.2
26/04:30am 22.7 17.9 11.7 49 6.3 ENE 28 39 15 21 1015.2 1011.8 1.2
26/04:00am 21.1 17.6 13.5 62 4.5 E 24 30 13 16 1015.7 1012.3 1.2
26/03:30am 21.7 22.0 16.0 70 3.5 S 9 11 5 6 1016.9 1013.6 1.0
26/03:00am 23.0 21.5 13.2 54 5.8 NE 13 19 7 10 1016.8 1013.5 0.8
26/02:30am 21.9 20.9 15.7 68 3.8 NE 15 15 8 8 1016.5 1013.1 0.8
26/02:00am 21.7 20.4 14.8 65 4.2 NE 15 20 8 11 1017.3 1013.9 0.6
26/01:30am 24.2 20.7 10.8 43 7.6 N 20 26 11 14 1017.3 1013.9 0.0
26/01:00am 24.7 20.0 10.6 41 8.0 NNE 26 35 14 19 1017.4 1014.0 0.0
26/12:30am 26.6 22.1 8.6 32 10.0 NNE 22 28 12 15 1017.2 1013.8 0.0
26/12:00am 26.4 25.9 10.9 38 8.9 WNW 4 7 2 4 1016.9 1013.6 0.0
 
Date/Time
WST
Temp
°C
App
Temp
°C
Dew
Point
Rel
Hum
%
Delta-T
°C
Wind Press
QNH
hPa
Press
MSL
hPa
Rain
since 9 am
mm
Dir
 
Spd
km/h
Gust
km/h
Spd
kts
Gust
kts
25/11:30pm 26.8 24.3 8.3 31 10.3 W 11 17 6 9 1016.8 1013.5 0.0
25/11:00pm 27.3 27.0 8.7 31 10.4 CALM 0 0 0 0 1016.6 1013.3 0.0
25/10:30pm 27.4 27.0 8.3 30 10.6 CALM 0 6 0 3 1016.4 1013.0 0.0
25/10:00pm 27.7 26.2 8.6 30 10.7 NE 6 9 3 5 1016.2 1012.8 0.0
25/09:30pm 27.9 26.3 8.2 29 11.0 ENE 6 9 3 5 1015.9 1012.5 0.0
25/09:00pm 28.3 25.6 7.5 27 11.5 ENE 11 15 6 8 1015.8 1012.4 0.0
25/08:30pm 28.5 25.4 7.1 26 11.7 E 13 19 7 10 1015.2 1011.8 0.0
25/08:00pm 29.0 25.8 7.0 25 12.1 ENE 13 17 7 9 1015.1 1011.7 0.0
25/07:30pm 29.4 26.2 6.7 24 12.4 ENE 13 20 7 11 1015.3 1011.9 0.0
25/07:00pm 29.7 24.7 6.4 23 12.7 ENE 22 35 12 19 1014.7 1011.3 0.0
25/06:30pm 30.1 25.0 6.1 22 13.0 E 22 33 12 18 1014.2 1010.8 0.0
25/06:00pm 30.9 24.9 5.3 20 13.8 E 26 37 14 20 1013.9 1010.5 0.0
25/05:30pm 31.8 25.4 5.3 19 14.3 ENE 28 39 15 21 1013.4 1010.0 0.0

Other Formats:

Comma delimited format used in spreadsheet applications
http://www.bom.gov.au/fwo/IDW60801/IDW60801.99434.axf

JavaScript Object Notation format (JSON) in row-major order
http://www.bom.gov.au/fwo/IDW60801/IDW60801.99434.json